Terminal Aerodrome Forecast
Issued by NWS El Paso, TX

Home | Current Version | Previous Version | Text Only | Print | Product List | Glossary On
Versions: 1 2 3 4 5 6 7 8 9 10 11 12
933
FTUS44 KEPZ 091731
TAFELP
TAF
KELP 091731Z 0918/1018 VRB03KT P6SM SKC
     FM100100 09004KT P6SM SKC=

USA.gov is the U.S. government's official web portal to all federal, state and local government web resources and services.